Latest Weather Observations for Ferny Creek

IDV60901

Issued at 11:01 pm EST Thursday 2 July 2020 (issued every 10 minutes, with the page automatically refreshed every 10 minutes)

About weather observations | Map of Melbourne area stations | Latest observations for Melbourne area | Other Formats
Station Details ID: 086266 Name: FERNY CREEK Lat: -37.87 Lon: 145.35 Height: 512.9 m
Data from the previous 72 hours. | See also: Recent months at Ferny Creek
Date/Time
EST
Temp
°C
App
Temp
°C
Dew
Point
°C
Rel
Hum
%
Delta-T
°C
Wind Press
QNH
hPa
Press
MSL
hPa
Rain since
9am
mm
Dir  Spd
km/h
Gust
km/h
Spd
kts
Gust
kts
02/11:00pm 5.7 3.2 4.5 92 0.5 NW 7 15 4 8 1015.8 1016.6 0.4
02/10:30pm 5.7 3.1 4.2 90 0.7 WNW 7 19 4 10 1015.7 1016.5 0.4
02/10:00pm 6.0 3.3 3.8 86 1.0 W 7 11 4 6 1015.7 1016.5 0.2
02/09:30pm 6.4 3.7 3.6 82 1.2 W 7 17 4 9 1015.5 1016.3 0.0
02/09:00pm 6.3 3.2 3.6 83 1.2 WNW 9 24 5 13 1015.3 1016.1 0.0
02/08:30pm 6.2 3.0 3.0 80 1.4 NW 9 20 5 11 1015.1 1015.9 0.0
02/08:00pm 6.2 3.3 2.5 77 1.6 NW 7 15 4 8 1015.0 1015.8 0.0
02/07:30pm 6.4 3.6 2.3 75 1.7 WNW 6 17 3 9 1014.8 1015.5 0.0
02/07:00pm 6.3 3.6 2.6 77 1.6 WNW 6 13 3 7 1014.8 1015.5 0.0
02/06:30pm 6.5 4.2 2.9 78 1.5 NNW 4 9 2 5 1014.5 1015.3 0.0
02/06:00pm 6.6 4.4 3.2 79 1.5 NNW 4 9 2 5 1014.3 1015.1 0.0
02/05:30pm 6.9 4.3 3.2 77 1.6 NW 6 13 3 7 1013.9 1014.7 0.0
02/05:00pm 7.4 4.6 3.1 74 1.9 NW 7 15 4 8 1013.7 1014.5 0.0
02/04:30pm 7.8 5.1 2.7 70 2.2 NW 6 15 3 8 1013.7 1014.5 0.0
02/04:00pm 8.4 5.7 2.8 68 2.4 NW 6 19 3 10 1013.3 1014.0 0.0
02/03:30pm 9.9 7.6 2.7 61 3.2 WNW 4 11 2 6 1013.1 1013.8 0.0
02/03:00pm 8.3 5.7 3.2 70 2.2 WNW 6 19 3 10 1013.1 1013.8 0.0
02/02:30pm 8.8 5.5 2.4 64 2.8 NW 9 22 5 12 1012.7 1013.4 0.0
02/02:00pm 8.7 5.3 1.8 62 3.0 NW 9 24 5 13 1012.7 1013.4 0.0
02/01:30pm 8.4 5.6 3.3 70 2.3 WNW 7 17 4 9 1012.7 1013.4 0.0
02/01:00pm 8.3 5.6 3.8 73 2.0 NW 7 22 4 12 1012.4 1013.2 0.0
02/12:30pm 8.5 5.9 4.1 74 2.0 WNW 7 22 4 12 1012.4 1013.2 0.0
02/12:00pm 7.8 4.7 3.7 75 1.8 NW 9 20 5 11 1012.5 1013.3 0.0
02/11:30am 8.1 5.4 3.9 75 1.9 NW 7 20 4 11 1012.5 1013.3 0.0
02/11:00am 8.3 5.3 4.1 75 1.9 NW 9 20 5 11 1012.4 1013.2 0.0
02/10:30am 7.3 4.4 4.6 83 1.2 NW 9 24 5 13 1012.3 1013.1 0.0
02/10:00am 7.3 4.8 5.0 85 1.0 NW 7 20 4 11 1011.9 1012.7 0.0
02/09:30am 6.3 3.8 4.8 90 0.7 WNW 7 13 4 7 1011.6 1012.3 0.0
02/09:00am 6.1 3.5 4.4 89 0.8 NW 7 15 4 8 1011.4 1012.1 617.0
02/08:30am 6.6 3.8 5.1 90 0.7 NW 9 19 5 10 1010.8 1011.5 -
02/08:00am 5.9 3.0 4.9 93 0.4 NW 9 17 5 9 1010.3 1011.1 -
02/07:30am 5.9 3.6 4.9 93 0.4 WNW 6 17 3 9 1010.0 1010.8 -
02/07:00am 6.0 3.5 5.0 93 0.5 NNW 7 15 4 8 1009.5 1010.2 -
02/06:30am 6.0 3.2 5.0 93 0.4 NW 9 17 5 9 1009.0 1009.7 -
02/06:00am 6.0 3.5 5.0 93 0.5 WNW 7 17 4 9 1008.7 1009.4 -
02/05:30am 6.0 3.6 5.1 94 0.4 WNW 7 19 4 10 1008.0 1008.7 -
02/05:00am 5.8 3.3 4.9 94 0.4 WNW 7 17 4 9 1007.4 1008.1 -
02/04:30am 5.8 3.4 5.1 95 0.3 NW 7 19 4 10 1006.8 1007.5 -
02/04:00am 5.9 3.5 5.3 96 0.3 W 7 20 4 11 1006.8 1007.5 -
02/03:30am 6.3 4.0 5.7 96 0.3 NNW 7 19 4 10 1006.5 1007.1 -
02/03:00am 6.8 4.8 6.1 95 0.3 NW 6 15 3 8 1006.3 1007.0 2.0
02/02:30am 7.2 4.2 6.0 92 0.6 NW 11 33 6 18 1005.8 1006.5 -
02/02:00am 9.2 6.9 5.8 79 1.6 WNW 7 24 4 13 1006.5 1007.1 -
02/01:30am 11.5 7.8 4.5 62 3.3 NW 13 33 7 18 1005.4 1006.1 -
02/01:00am 11.9 9.1 5.1 63 3.2 NNW 9 35 5 19 1005.2 1005.9 -
02/12:30am 12.3 8.3 5.0 61 3.5 N 15 32 8 17 1005.0 1005.6 -
02/12:00am 12.1 7.2 5.3 63 3.3 NNE 20 39 11 21 1004.9 1005.5 -
 
Date/Time
EST
Temp
°C
App
Temp
°C
Dew
Point
°C
Rel
Hum
%
Delta-T
°C
Wind Press
QNH
hPa
Press
MSL
hPa
Rain since
9am
mm
Dir  Spd
km/h
Gust
km/h
Spd
kts
Gust
kts
01/11:30pm 11.5 5.9 5.6 67 2.8 NNE 24 46 13 25 1004.6 1005.2 -
01/11:00pm 10.5 5.6 7.0 79 1.7 NNE 22 48 12 26 1005.7 1006.4 -
01/10:30pm 10.7 5.7 6.3 74 2.1 NNE 22 44 12 24 1006.1 1006.8 -
01/10:01pm 10.4 4.1 5.6 72 2.3 NE 28 52 15 28 1005.3 1006.0 -
01/10:00pm 10.4 4.5 5.8 73 2.2 NE 26 52 14 28 1005.2 1005.9 -
01/09:35pm 10.6 4.2 5.2 69 2.5 NE 28 52 15 28 1005.5 1006.2 -
01/09:30pm 11.3 5.1 4.5 63 3.2 NE 26 52 14 28 1006.0 1006.7 -
01/09:00pm 11.2 6.0 3.7 60 3.4 NNE 20 41 11 22 1006.6 1007.2 -
01/08:30pm 11.3 5.7 3.3 58 3.6 NE 22 46 12 25 1007.0 1007.7 -
01/08:00pm 11.3 6.0 3.1 57 3.7 NNE 20 41 11 22 1007.3 1008.0 -
01/07:30pm 11.0 5.7 3.1 58 3.6 NNE 20 48 11 26 1007.8 1008.5 -
01/07:00pm 10.6 5.9 2.9 59 3.4 NE 17 41 9 22 1008.3 1009.0 -
01/06:30pm 10.5 5.9 3.5 62 3.2 NNE 17 35 9 19 1008.8 1009.5 -
01/06:00pm 10.7 6.5 3.7 62 3.2 NNE 15 30 8 16 1009.4 1010.1 -
01/05:30pm 10.8 6.9 3.6 61 3.3 N 13 32 7 17 1009.4 1010.1 -
01/05:00pm 10.7 6.4 3.3 60 3.3 NNE 15 35 8 19 1009.6 1010.3 -
01/04:30pm 11.1 7.1 2.7 56 3.7 NNE 13 28 7 15 1009.9 1010.6 -
01/04:00pm 11.6 7.9 2.1 52 4.2 N 11 32 6 17 1009.9 1010.6 -
01/03:30pm 12.6 9.0 2.7 51 4.5 SSE 11 24 6 13 1010.0 1010.8 -
01/10:30am 11.5 8.3 5.2 65 3.0 NNE 11 24 6 13 1014.8 1015.5 0.0
01/10:00am 10.7 7.5 5.3 69 2.5 NNE 11 30 6 16 1015.0 1015.8 0.0
01/09:30am 10.1 7.3 5.3 72 2.2 N 9 24 5 13 1015.3 1015.9 0.0
01/09:00am 9.8 7.0 5.2 73 2.1 N 9 26 5 14 1015.5 1016.1 0.0
01/08:30am 9.6 6.5 5.4 75 2.0 N 11 20 6 11 1015.7 1016.3 0.0
01/08:00am 9.6 7.4 5.4 75 2.0 N 6 17 3 9 1015.7 1016.3 0.0
01/07:30am 9.9 6.7 5.3 73 2.2 N 11 35 6 19 1015.4 1016.0 0.0
01/07:00am 9.8 7.0 5.2 73 2.1 N 9 33 5 18 1015.1 1015.7 0.0
01/06:30am 9.9 6.7 5.3 73 2.2 N 11 24 6 13 1014.9 1015.5 0.0
01/06:00am 10.0 6.4 5.2 72 2.2 N 13 26 7 14 1014.6 1015.2 0.0
01/05:30am 10.2 7.1 5.4 72 2.3 N 11 26 6 14 1014.9 1015.5 0.0
01/05:00am 10.2 7.1 5.4 72 2.3 N 11 26 6 14 1014.9 1015.5 0.0
01/04:30am 10.1 7.0 5.5 73 2.2 N 11 24 6 13 1014.9 1015.5 0.0
01/04:00am 10.1 7.0 5.5 73 2.2 NNE 11 24 6 13 1015.1 1015.7 0.0
01/03:30am 10.4 7.3 5.6 72 2.3 N 11 33 6 18 1015.2 1015.8 0.0
01/03:00am 10.1 6.9 5.3 72 2.2 NNE 11 26 6 14 1015.4 1016.0 0.0
01/02:30am 10.4 7.4 5.8 73 2.2 NNE 11 32 6 17 1015.7 1016.3 0.0
01/02:00am 10.0 7.3 5.8 75 2.0 NNE 9 22 5 12 1016.0 1016.6 0.0
01/01:30am 10.1 6.7 5.7 74 2.1 NNE 13 26 7 14 1016.1 1016.7 0.0
01/01:00am 10.2 7.5 5.6 73 2.2 NNE 9 17 5 9 1016.3 1016.9 0.0
01/12:30am 10.1 7.5 5.9 75 2.0 NNE 9 26 5 14 1017.0 1017.6 0.0
01/12:00am 10.2 7.5 5.8 74 2.1 N 9 30 5 16 1017.5 1018.1 0.0
 
Date/Time
EST
Temp
°C
App
Temp
°C
Dew
Point
°C
Rel
Hum
%
Delta-T
°C
Wind Press
QNH
hPa
Press
MSL
hPa
Rain since
9am
mm
Dir  Spd
km/h
Gust
km/h
Spd
kts
Gust
kts
30/11:30pm 10.2 8.0 6.0 75 2.0 N 7 17 4 9 1017.5 1018.1 0.0
30/11:00pm 9.9 7.6 5.9 76 1.9 N 7 19 4 10 1017.6 1018.2 0.0
30/10:30pm 9.8 7.4 5.4 74 2.1 NNW 7 17 4 9 1017.7 1018.3 0.0
30/10:00pm 10.0 7.5 5.0 71 2.3 N 7 17 4 9 1017.4 1018.0 0.0
30/09:30pm 9.9 6.9 4.3 68 2.6 N 9 20 5 11 1017.4 1018.0 0.0
30/09:00pm 10.0 7.0 4.0 66 2.7 N 9 28 5 15 1017.2 1017.8 0.0
30/08:30pm 10.2 6.8 3.9 65 2.9 N 11 28 6 15 1016.7 1017.4 0.0
30/08:00pm 10.0 6.6 4.0 66 2.7 N 11 32 6 17 1016.5 1017.2 0.0
30/07:30pm 10.0 6.6 4.2 67 2.6 N 11 28 6 15 1016.6 1017.3 0.0
30/07:00pm 10.1 6.0 4.3 67 2.7 N 15 35 8 19 1016.4 1017.0 0.0
30/06:30pm 9.9 7.0 4.5 69 2.5 N 9 20 5 11 1016.6 1017.3 0.0
30/06:00pm 10.1 6.8 4.3 67 2.7 N 11 28 6 15 1016.1 1016.7 0.0
30/05:30pm 10.1 6.4 4.5 68 2.6 N 13 26 7 14 1015.8 1016.4 0.0
30/05:00pm 10.1 6.4 4.5 68 2.6 N 13 30 7 16 1015.9 1016.5 0.0
30/04:30pm 10.0 6.3 4.4 68 2.6 N 13 30 7 16 1015.7 1016.3 0.0
30/04:00pm 10.2 6.4 4.1 66 2.8 N 13 41 7 22 1015.2 1015.8 0.0
30/03:30pm 10.3 6.2 4.2 66 2.8 N 15 32 8 17 1014.9 1015.5 0.0
30/03:00pm 10.2 6.8 3.9 65 2.9 N 11 39 6 21 1015.3 1015.9 0.0
30/02:30pm 10.6 7.2 3.9 63 3.1 NNE 11 32 6 17 1015.2 1015.8 0.0
30/02:00pm 10.8 6.5 3.4 60 3.3 N 15 33 8 18 1015.6 1016.2 0.0
30/01:30pm 11.0 7.2 3.8 61 3.3 N 13 28 7 15 1016.3 1016.9 0.0
30/01:00pm 11.2 7.8 4.2 62 3.2 N 11 32 6 17 1016.6 1017.3 0.0
30/12:30pm 11.0 7.1 3.5 60 3.4 N 13 28 7 15 1016.9 1017.5 0.0
30/12:00pm 11.2 6.6 3.5 59 3.5 N 17 37 9 20 1017.3 1017.9 0.0
30/11:30am 11.0 7.2 3.8 61 3.3 NNE 13 28 7 15 1017.8 1018.4 0.0
30/11:00am 10.4 6.6 3.7 63 3.0 N 13 28 7 15 1018.6 1019.3 0.0
30/10:30am 9.3 6.1 3.3 66 2.7 N 9 26 5 14 1019.1 1019.7 0.0
30/10:00am 9.3 5.3 2.6 63 2.9 NNE 13 33 7 18 1019.2 1019.8 0.0
30/09:30am 8.9 4.8 2.3 63 2.9 N 13 26 7 14 1019.5 1020.1 0.0
30/09:00am 8.9 5.5 2.0 62 3.0 N 9 22 5 12 1019.7 1020.3 0.0
30/08:30am 9.3 5.5 1.7 59 3.3 N 11 32 6 17 1019.9 1020.6 0.0
30/08:00am 8.9 5.1 1.8 61 3.0 N 11 24 6 13 1019.8 1020.5 0.0
30/07:30am 8.4 4.2 1.8 63 2.8 NNE 13 30 7 16 1019.6 1020.2 0.0
30/07:00am 8.3 4.5 1.9 64 2.7 N 11 22 6 12 1019.6 1020.2 0.0
30/06:30am 8.1 3.9 1.7 64 2.7 NNE 13 24 7 13 1019.6 1020.2 0.0
30/06:00am 8.1 4.7 1.7 64 2.7 N 9 24 5 13 1019.5 1020.1 0.0
30/05:30am 8.3 4.5 1.9 64 2.7 N 11 26 6 14 1019.6 1020.2 0.0
30/05:00am 7.7 3.9 2.0 67 2.4 N 11 30 6 16 1019.9 1020.6 0.0
30/04:30am 8.0 3.9 2.5 68 2.4 NNE 13 30 7 16 1020.1 1020.8 0.0
30/04:00am 8.1 4.5 3.2 71 2.1 N 11 24 6 13 1020.2 1020.9 0.0
30/03:30am 7.9 4.7 3.0 71 2.1 N 9 20 5 11 1020.5 1021.2 0.0
30/03:00am 7.8 4.4 2.1 67 2.4 N 9 19 5 10 1020.6 1021.3 0.0
30/02:30am 8.0 4.6 2.0 66 2.6 NNE 9 19 5 10 1021.0 1021.6 0.0
30/02:00am 8.0 4.6 2.0 66 2.5 NNE 9 24 5 13 1021.3 1021.9 0.0
30/01:30am 8.2 5.2 2.0 65 2.6 NNE 7 20 4 11 1021.8 1022.5 0.0
30/01:00am 8.3 5.3 1.9 64 2.7 N 7 15 4 8 1022.1 1022.8 0.0
30/12:30am 8.1 5.1 1.7 64 2.7 N 7 17 4 9 1022.2 1022.9 0.0
30/12:00am 8.0 5.2 2.0 66 2.5 N 6 15 3 8 1022.2 1022.9 0.0
 
Date/Time
EST
Temp
°C
App
Temp
°C
Dew
Point
°C
Rel
Hum
%
Delta-T
°C
Wind Press
QNH
hPa
Press
MSL
hPa
Rain since
9am
mm
Dir  Spd
km/h
Gust
km/h
Spd
kts
Gust
kts
29/11:30pm 7.7 4.3 2.0 67 2.4 NE 9 17 5 9 1022.3 1023.0 0.0

Latest Capital City Observations: Canberra | Sydney | Melbourne | Brisbane | Adelaide | Perth | Hobart | Darwin

Other formats

Comma delimited format used in spreadsheet applications
http://www.bom.gov.au/fwo/IDV60901/IDV60901.94872.axf

JavaScript Object Notation format (JSON) in row-major order
http://www.bom.gov.au/fwo/IDV60901/IDV60901.94872.json

Data quality

Most of these data are generated automatically and are frequently updated. Quality checks on data are not normally performed. It is possible for incorrect values to appear. Refer to information at About Latest Weather Observations and please check the disclaimer before using these data.